PWSweather.com
Personal Weather Stations
Station Observations
WHAKATANE1
Whakatane, WhakataneNZ

WhakataneWhakataneNZ

Lat: -37.960954, Lon: 176.9768

Elevation: 10

Station Type: Lacrosse

Latest ConditionsUpdated 7:20:00 PM GMT+12:12 Friday, Mar 6, 2015
Currently Today's Max Today's Min Today's Average
Temperature 67.5°F19.7°C 79.9°F26.6°C 64.6°F18.1°C 69.0°F20.6°C
Dew Point 67.2°F19.6°C 67.4°F19.7°C 59.3°F15.2°C 62.3°F16.8°C
Winds 7.9 mph E12.7 kmh E 12.9 mph SE20.8 kmh SE - 7.5 mph 12.1 kmh
Wind Gusts 9.8 mph15.8 kmh 18.3 mph29.5 kmh - -
Humidity 99% 99% 51% 80%
Pressure 29.37 in994.6 mb 29.56 in1001.0 mb 29.35 in993.9 mb -
Hour Temp Dew Point Humidity Winds Wind Gusts Pressure Precip Precip Rate Daily Precip Total
07:20 PM 67.5°F19.7°C 67.2°F19.6°C 99% 7.9 mph E12.7 kmh E 9.8 mph15.8 kmh 29.37 in994.6 mb 0.00 in0.0 mm 0.00 in/hr0.0 mm/hr 0.40 in10.2 mm
07:15 PM 67.5°F19.7°C 67.2°F19.6°C 99% 6.9 mph E11.1 kmh E 11.4 mph18.3 kmh 29.36 in994.2 mb 0.00 in0.0 mm 0.00 in/hr0.0 mm/hr 0.40 in10.2 mm
07:10 PM 67.5°F19.7°C 67.2°F19.6°C 99% 6.0 mph E9.7 kmh E 11.4 mph18.3 kmh 29.36 in994.2 mb 0.00 in0.0 mm 0.00 in/hr0.0 mm/hr 0.40 in10.2 mm
07:05 PM 67.6°F19.8°C 67.4°F19.7°C 99% 6.1 mph E9.8 kmh E 8.3 mph13.4 kmh 29.36 in994.2 mb 0.00 in0.0 mm 0.00 in/hr0.0 mm/hr 0.40 in10.2 mm
07:00 PM 67.6°F19.8°C 67.4°F19.7°C 99% 6.5 mph ESE10.5 kmh ESE 8.3 mph13.4 kmh 29.35 in993.9 mb 0.00 in0.0 mm 0.00 in/hr0.0 mm/hr 0.40 in10.2 mm
06:55 PM 67.6°F19.8°C 67.4°F19.7°C 99% 7.2 mph ESE11.6 kmh ESE 11.4 mph18.3 kmh 29.35 in993.9 mb 0.00 in0.0 mm 0.00 in/hr0.0 mm/hr 0.40 in10.2 mm
06:50 PM 67.8°F19.9°C 67.3°F19.6°C 98% 7.6 mph ESE12.2 kmh ESE 11.4 mph18.3 kmh 29.36 in994.2 mb 0.00 in0.0 mm 0.00 in/hr0.0 mm/hr 0.40 in10.2 mm
06:45 PM 67.8°F19.9°C 67.3°F19.6°C 98% 7.4 mph ESE11.9 kmh ESE 10.7 mph17.2 kmh 29.36 in994.2 mb 0.00 in0.0 mm 0.00 in/hr0.0 mm/hr 0.40 in10.2 mm
06:40 PM 67.8°F19.9°C 67.0°F19.4°C 97% 6.8 mph E10.9 kmh E 9.2 mph14.8 kmh 29.36 in994.2 mb 0.00 in0.0 mm 0.00 in/hr0.0 mm/hr 0.40 in10.2 mm
06:35 PM 68.0°F20.0°C 66.8°F19.3°C 96% 6.5 mph E10.5 kmh E 9.2 mph14.8 kmh 29.36 in994.2 mb 0.00 in0.0 mm 0.00 in/hr0.0 mm/hr 0.40 in10.2 mm
06:30 PM 68.2°F20.1°C 66.7°F19.3°C 95% 6.3 mph E10.1 kmh E 12.1 mph19.5 kmh 29.36 in994.2 mb 0.00 in0.0 mm 0.00 in/hr0.0 mm/hr 0.40 in10.2 mm
06:25 PM 68.4°F20.2°C 66.9°F19.4°C 95% 6.9 mph ENE11.1 kmh ENE 12.1 mph19.5 kmh 29.37 in994.6 mb 0.00 in0.0 mm 0.00 in/hr0.0 mm/hr 0.40 in10.2 mm
06:20 PM 68.4°F20.2°C 66.9°F19.4°C 95% 7.4 mph ENE11.9 kmh ENE 10.7 mph17.2 kmh 29.36 in994.2 mb 0.00 in0.0 mm 0.00 in/hr0.0 mm/hr 0.40 in10.2 mm
06:15 PM 68.4°F20.2°C 66.6°F19.2°C 94% 7.5 mph SE12.1 kmh SE 10.7 mph17.2 kmh 29.37 in994.6 mb 0.00 in0.0 mm 0.00 in/hr0.0 mm/hr 0.40 in10.2 mm
06:10 PM 68.4°F20.2°C 66.9°F19.4°C 95% 8.1 mph ESE13.0 kmh ESE 10.7 mph17.2 kmh 29.37 in994.6 mb 0.00 in0.0 mm 0.00 in/hr0.0 mm/hr 0.40 in10.2 mm
06:05 PM 68.4°F20.2°C 66.6°F19.2°C 94% 7.9 mph ENE12.7 kmh ENE 9.2 mph14.8 kmh 29.36 in994.2 mb 0.00 in0.0 mm 0.00 in/hr0.0 mm/hr 0.40 in10.2 mm
06:00 PM 68.0°F20.0°C 66.2°F19.0°C 94% 8.3 mph SE13.4 kmh SE 8.3 mph13.4 kmh 29.36 in994.2 mb 0.00 in0.0 mm 0.00 in/hr0.0 mm/hr 0.40 in10.2 mm
05:55 PM 68.0°F20.0°C 66.2°F19.0°C 94% 8.3 mph SE13.4 kmh SE 8.3 mph13.4 kmh 29.37 in994.6 mb 0.00 in0.0 mm 0.00 in/hr0.0 mm/hr 0.40 in10.2 mm
05:50 PM 68.0°F20.0°C 66.2°F19.0°C 94% 8.3 mph SE13.4 kmh SE 8.3 mph13.4 kmh 29.37 in994.6 mb 0.00 in0.0 mm 0.00 in/hr0.0 mm/hr 0.40 in10.2 mm
05:45 PM 68.0°F20.0°C 66.2°F19.0°C 94% 8.3 mph SE13.4 kmh SE 8.3 mph13.4 kmh 29.37 in994.6 mb 0.00 in0.0 mm 0.00 in/hr0.0 mm/hr 0.40 in10.2 mm
05:40 PM 67.8°F19.9°C 66.4°F19.1°C 95% 8.8 mph SE14.2 kmh SE 10.7 mph17.2 kmh 29.37 in994.6 mb 0.00 in0.0 mm 0.00 in/hr0.0 mm/hr 0.40 in10.2 mm
05:35 PM 67.8°F19.9°C 66.4°F19.1°C 95% 8.9 mph SE14.3 kmh SE 10.7 mph17.2 kmh 29.37 in994.6 mb 0.00 in0.0 mm 0.00 in/hr0.0 mm/hr 0.40 in10.2 mm
05:30 PM 67.8°F19.9°C 66.4°F19.1°C 95% 9.8 mph E15.8 kmh E 10.7 mph17.2 kmh 29.37 in994.6 mb 0.00 in0.0 mm 0.00 in/hr0.0 mm/hr 0.40 in10.2 mm
05:25 PM 67.8°F19.9°C 66.4°F19.1°C 95% 6.4 mph SE10.3 kmh SE 10.7 mph17.2 kmh 29.37 in994.6 mb 0.00 in0.0 mm 0.00 in/hr0.0 mm/hr 0.40 in10.2 mm
05:20 PM 67.5°F19.7°C 66.0°F18.9°C 95% 3.8 mph SSE6.1 kmh SSE 4.5 mph7.2 kmh 29.37 in994.6 mb 0.00 in0.0 mm 0.00 in/hr0.0 mm/hr 0.40 in10.2 mm
05:15 PM 67.5°F19.7°C 66.0°F18.9°C 95% 2.4 mph SE3.9 kmh SE 4.5 mph7.2 kmh 29.37 in994.6 mb 0.00 in0.0 mm 0.00 in/hr0.0 mm/hr 0.40 in10.2 mm
05:10 PM 67.3°F19.6°C 65.5°F18.6°C 94% 3.1 mph SE5.0 kmh SE 5.4 mph8.7 kmh 29.37 in994.6 mb 0.40 in10.2 mm 4.80 in/hr121.9 mm/hr 0.40 in10.2 mm
05:05 PM 67.3°F19.6°C 65.5°F18.6°C 94% 5.9 mph ESE9.5 kmh ESE 8.3 mph13.4 kmh 29.37 in994.6 mb 0.00 in0.0 mm 0.00 in/hr0.0 mm/hr 0.00 in0.0 mm
05:00 PM 67.3°F19.6°C 65.5°F18.6°C 94% 7.5 mph E12.1 kmh E 9.8 mph15.8 kmh 29.36 in994.2 mb 0.00 in0.0 mm 0.00 in/hr0.0 mm/hr 0.00 in0.0 mm
04:55 PM 67.5°F19.7°C 65.4°F18.6°C 93% 7.5 mph SE12.1 kmh SE 9.8 mph15.8 kmh 29.37 in994.6 mb 0.00 in0.0 mm 0.00 in/hr0.0 mm/hr 0.00 in0.0 mm
04:45 PM 67.8°F19.9°C 65.1°F18.4°C 91% 8.0 mph SE12.9 kmh SE 12.1 mph19.5 kmh 29.37 in994.6 mb 0.00 in0.0 mm 0.00 in/hr0.0 mm/hr 0.00 in0.0 mm
04:40 PM 68.0°F20.0°C 65.0°F18.3°C 90% 8.4 mph ESE13.5 kmh ESE 13.0 mph20.9 kmh 29.37 in994.6 mb 0.00 in0.0 mm 0.00 in/hr0.0 mm/hr 0.00 in0.0 mm
04:35 PM 68.2°F20.1°C 64.8°F18.2°C 89% 7.7 mph SE12.4 kmh SE 13.0 mph20.9 kmh 29.37 in994.6 mb 0.00 in0.0 mm 0.00 in/hr0.0 mm/hr 0.00 in0.0 mm
04:30 PM 68.4°F20.2°C 64.7°F18.2°C 88% 7.8 mph SE12.6 kmh SE 11.4 mph18.3 kmh 29.37 in994.6 mb 0.00 in0.0 mm 0.00 in/hr0.0 mm/hr 0.00 in0.0 mm
04:25 PM 68.5°F20.3°C 64.5°F18.1°C 87% 8.3 mph SSE13.4 kmh SSE 13.6 mph21.9 kmh 29.37 in994.6 mb 0.00 in0.0 mm 0.00 in/hr0.0 mm/hr 0.00 in0.0 mm
04:20 PM 68.5°F20.3°C 64.5°F18.1°C 87% 8.4 mph SE13.5 kmh SE 13.6 mph21.9 kmh 29.37 in994.6 mb 0.00 in0.0 mm 0.00 in/hr0.0 mm/hr 0.00 in0.0 mm
04:15 PM 68.5°F20.3°C 64.5°F18.1°C 87% 8.3 mph SE13.4 kmh SE 11.4 mph18.3 kmh 29.37 in994.6 mb 0.00 in0.0 mm 0.00 in/hr0.0 mm/hr 0.00 in0.0 mm
04:10 PM 68.7°F20.4°C 64.7°F18.2°C 87% 7.5 mph SE12.1 kmh SE 9.8 mph15.8 kmh 29.37 in994.6 mb 0.00 in0.0 mm 0.00 in/hr0.0 mm/hr 0.00 in0.0 mm
04:05 PM 68.9°F20.5°C 64.6°F18.1°C 86% 8.5 mph SE13.7 kmh SE 10.7 mph17.2 kmh 29.37 in994.6 mb 0.00 in0.0 mm 0.00 in/hr0.0 mm/hr 0.00 in0.0 mm
04:00 PM 68.9°F20.5°C 64.2°F17.9°C 85% 9.1 mph SE14.6 kmh SE 10.7 mph17.2 kmh 29.37 in994.6 mb 0.00 in0.0 mm 0.00 in/hr0.0 mm/hr 0.00 in0.0 mm
03:55 PM 69.1°F20.6°C 64.1°F17.8°C 84% 9.0 mph SE14.5 kmh SE 13.0 mph20.9 kmh 29.37 in994.6 mb 0.00 in0.0 mm 0.00 in/hr0.0 mm/hr 0.00 in0.0 mm
03:50 PM 69.1°F20.6°C 64.1°F17.8°C 84% 8.8 mph SE14.2 kmh SE 13.0 mph20.9 kmh 29.37 in994.6 mb 0.00 in0.0 mm 0.00 in/hr0.0 mm/hr 0.00 in0.0 mm
03:45 PM 68.9°F20.5°C 63.9°F17.7°C 84% 8.8 mph SE14.2 kmh SE 14.5 mph23.3 kmh 29.37 in994.6 mb 0.00 in0.0 mm 0.00 in/hr0.0 mm/hr 0.00 in0.0 mm
03:40 PM 68.5°F20.3°C 63.9°F17.7°C 85% 9.8 mph SE15.8 kmh SE 14.5 mph23.3 kmh 29.37 in994.6 mb 0.00 in0.0 mm 0.00 in/hr0.0 mm/hr 0.00 in0.0 mm
03:35 PM 68.5°F20.3°C 63.9°F17.7°C 85% 10.7 mph SE17.2 kmh SE 15.2 mph24.5 kmh 29.38 in994.9 mb 0.00 in0.0 mm 0.00 in/hr0.0 mm/hr 0.00 in0.0 mm
03:30 PM 68.4°F20.2°C 63.7°F17.6°C 85% 10.0 mph SE16.1 kmh SE 15.2 mph24.5 kmh 29.38 in994.9 mb 0.00 in0.0 mm 0.00 in/hr0.0 mm/hr 0.00 in0.0 mm
03:25 PM 68.2°F20.1°C 63.5°F17.5°C 85% 8.7 mph SE14.0 kmh SE 13.6 mph21.9 kmh 29.38 in994.9 mb 0.00 in0.0 mm 0.00 in/hr0.0 mm/hr 0.00 in0.0 mm
03:20 PM 68.0°F20.0°C 63.3°F17.4°C 85% 8.4 mph SE13.5 kmh SE 11.4 mph18.3 kmh 29.38 in994.9 mb 0.00 in0.0 mm 0.00 in/hr0.0 mm/hr 0.00 in0.0 mm
03:15 PM 68.0°F20.0°C 63.0°F17.2°C 84% 8.6 mph SE13.8 kmh SE 13.6 mph21.9 kmh 29.38 in994.9 mb 0.00 in0.0 mm 0.00 in/hr0.0 mm/hr 0.00 in0.0 mm
03:10 PM 68.5°F20.3°C 63.2°F17.3°C 83% 9.4 mph SE15.1 kmh SE 13.6 mph21.9 kmh 29.39 in995.3 mb 0.00 in0.0 mm 0.00 in/hr0.0 mm/hr 0.00 in0.0 mm
03:05 PM 68.9°F20.5°C 62.9°F17.2°C 81% 8.5 mph SE13.7 kmh SE 12.1 mph19.5 kmh 29.39 in995.3 mb 0.00 in0.0 mm 0.00 in/hr0.0 mm/hr 0.00 in0.0 mm
03:00 PM 69.1°F20.6°C 63.0°F17.2°C 81% 7.6 mph SSE12.2 kmh SSE 10.7 mph17.2 kmh 29.39 in995.3 mb 0.00 in0.0 mm 0.00 in/hr0.0 mm/hr 0.00 in0.0 mm
02:55 PM 69.1°F20.6°C 62.7°F17.1°C 80% 8.2 mph SE13.2 kmh SE 11.4 mph18.3 kmh 29.38 in994.9 mb 0.00 in0.0 mm 0.00 in/hr0.0 mm/hr 0.00 in0.0 mm
02:50 PM 69.3°F20.7°C 62.1°F16.7°C 78% 9.0 mph ESE14.5 kmh ESE 13.0 mph20.9 kmh 29.39 in995.3 mb 0.00 in0.0 mm 0.00 in/hr0.0 mm/hr 0.00 in0.0 mm
02:45 PM 69.4°F20.8°C 61.9°F16.6°C 77% 9.8 mph SE15.8 kmh SE 13.0 mph20.9 kmh 29.39 in995.3 mb 0.00 in0.0 mm 0.00 in/hr0.0 mm/hr 0.00 in0.0 mm
02:40 PM 69.8°F21.0°C 61.9°F16.6°C 76% 10.1 mph SSE16.3 kmh SSE 11.4 mph18.3 kmh 29.38 in994.9 mb 0.00 in0.0 mm 0.00 in/hr0.0 mm/hr 0.00 in0.0 mm
02:35 PM 70.2°F21.2°C 61.9°F16.6°C 75% 9.1 mph SE14.6 kmh SE 12.1 mph19.5 kmh 29.38 in994.9 mb 0.00 in0.0 mm 0.00 in/hr0.0 mm/hr 0.00 in0.0 mm
02:30 PM 70.3°F21.3°C 61.7°F16.5°C 74% 8.3 mph E13.4 kmh E 13.0 mph20.9 kmh 29.38 in994.9 mb 0.00 in0.0 mm 0.00 in/hr0.0 mm/hr 0.00 in0.0 mm
02:25 PM 70.3°F21.3°C 60.9°F16.1°C 72% 8.9 mph E14.3 kmh E 13.0 mph20.9 kmh 29.38 in994.9 mb 0.00 in0.0 mm 0.00 in/hr0.0 mm/hr 0.00 in0.0 mm
02:20 PM 70.7°F21.5°C 61.3°F16.3°C 72% 9.8 mph ESE15.8 kmh ESE 13.6 mph21.9 kmh 29.39 in995.3 mb 0.00 in0.0 mm 0.00 in/hr0.0 mm/hr 0.00 in0.0 mm
02:15 PM 71.1°F21.7°C 61.2°F16.2°C 71% 11.0 mph SSE17.7 kmh SSE 13.6 mph21.9 kmh 29.39 in995.3 mb 0.00 in0.0 mm 0.00 in/hr0.0 mm/hr 0.00 in0.0 mm
02:10 PM 71.4°F21.9°C 60.7°F15.9°C 69% 10.0 mph SSE16.1 kmh SSE 12.1 mph19.5 kmh 29.39 in995.3 mb 0.00 in0.0 mm 0.00 in/hr0.0 mm/hr 0.00 in0.0 mm
02:05 PM 72.3°F22.4°C 61.2°F16.2°C 68% 10.0 mph SE16.1 kmh SE 14.5 mph23.3 kmh 29.40 in995.6 mb 0.00 in0.0 mm 0.00 in/hr0.0 mm/hr 0.00 in0.0 mm
02:00 PM 72.3°F22.4°C 61.2°F16.2°C 68% 10.8 mph SSE17.4 kmh SSE 14.5 mph23.3 kmh 29.39 in995.3 mb 0.00 in0.0 mm 0.00 in/hr0.0 mm/hr 0.00 in0.0 mm
01:55 PM 72.1°F22.3°C 61.4°F16.3°C 69% 9.7 mph S15.6 kmh S 9.8 mph15.8 kmh 29.40 in995.6 mb 0.00 in0.0 mm 0.00 in/hr0.0 mm/hr 0.00 in0.0 mm
01:50 PM 72.1°F22.3°C 61.4°F16.3°C 69% 8.9 mph ESE14.3 kmh ESE 9.8 mph15.8 kmh 29.40 in995.6 mb 0.00 in0.0 mm 0.00 in/hr0.0 mm/hr 0.00 in0.0 mm
01:45 PM 72.1°F22.3°C 61.0°F16.1°C 68% 8.7 mph E14.0 kmh E 9.8 mph15.8 kmh 29.41 in995.9 mb 0.00 in0.0 mm 0.00 in/hr0.0 mm/hr 0.00 in0.0 mm
01:40 PM 72.1°F22.3°C 61.0°F16.1°C 68% 9.5 mph SE15.3 kmh SE 9.8 mph15.8 kmh 29.41 in995.9 mb 0.00 in0.0 mm 0.00 in/hr0.0 mm/hr 0.00 in0.0 mm
01:35 PM 72.3°F22.4°C 60.8°F16.0°C 67% 11.4 mph SE18.3 kmh SE 13.0 mph20.9 kmh 29.41 in995.9 mb 0.00 in0.0 mm 0.00 in/hr0.0 mm/hr 0.00 in0.0 mm
01:30 PM 72.3°F22.4°C 60.8°F16.0°C 67% 12.9 mph SE20.8 kmh SE 15.9 mph25.6 kmh 29.41 in995.9 mb 0.00 in0.0 mm 0.00 in/hr0.0 mm/hr 0.00 in0.0 mm
01:25 PM 72.9°F22.7°C 60.4°F15.8°C 65% 11.6 mph SE18.7 kmh SE 15.9 mph25.6 kmh 29.41 in995.9 mb 0.00 in0.0 mm 0.00 in/hr0.0 mm/hr 0.00 in0.0 mm
01:20 PM 73.0°F22.8°C 60.6°F15.9°C 65% 10.1 mph SE16.3 kmh SE 12.1 mph19.5 kmh 29.41 in995.9 mb 0.00 in0.0 mm 0.00 in/hr0.0 mm/hr 0.00 in0.0 mm
01:15 PM 73.2°F22.9°C 60.8°F16.0°C 65% 10.9 mph SE17.5 kmh SE 12.1 mph19.5 kmh 29.41 in995.9 mb 0.00 in0.0 mm 0.00 in/hr0.0 mm/hr 0.00 in0.0 mm
01:10 PM 73.2°F22.9°C 60.8°F16.0°C 65% 12.0 mph S19.3 kmh S 12.1 mph19.5 kmh 29.41 in995.9 mb 0.00 in0.0 mm 0.00 in/hr0.0 mm/hr 0.00 in0.0 mm
01:05 PM 73.0°F22.8°C 60.6°F15.9°C 65% 11.5 mph S18.5 kmh S 12.1 mph19.5 kmh 29.41 in995.9 mb 0.00 in0.0 mm 0.00 in/hr0.0 mm/hr 0.00 in0.0 mm
01:00 PM 73.0°F22.8°C 60.6°F15.9°C 65% 10.1 mph SSE16.3 kmh SSE 12.1 mph19.5 kmh 29.42 in996.3 mb 0.00 in0.0 mm 0.00 in/hr0.0 mm/hr 0.00 in0.0 mm
12:55 PM 72.9°F22.7°C 60.9°F16.1°C 66% 9.7 mph SE15.6 kmh SE 13.6 mph21.9 kmh 29.42 in996.3 mb 0.00 in0.0 mm 0.00 in/hr0.0 mm/hr 0.00 in0.0 mm
12:50 PM 72.7°F22.6°C 60.7°F15.9°C 66% 9.9 mph SSE15.9 kmh SSE 13.6 mph21.9 kmh 29.42 in996.3 mb 0.00 in0.0 mm 0.00 in/hr0.0 mm/hr 0.00 in0.0 mm
12:45 PM 72.5°F22.5°C 60.5°F15.8°C 66% 9.5 mph S15.3 kmh S 12.1 mph19.5 kmh 29.42 in996.3 mb 0.00 in0.0 mm 0.00 in/hr0.0 mm/hr 0.00 in0.0 mm
12:40 PM 72.5°F22.5°C 60.5°F15.8°C 66% 10.3 mph SSW16.6 kmh SSW 13.0 mph20.9 kmh 29.42 in996.3 mb 0.00 in0.0 mm 0.00 in/hr0.0 mm/hr 0.00 in0.0 mm
12:35 PM 73.0°F22.8°C 60.6°F15.9°C 65% 11.2 mph SSE18.0 kmh SSE 14.5 mph23.3 kmh 29.42 in996.3 mb 0.00 in0.0 mm 0.00 in/hr0.0 mm/hr 0.00 in0.0 mm
12:30 PM 73.0°F22.8°C 60.6°F15.9°C 65% 11.5 mph SE18.5 kmh SE 14.5 mph23.3 kmh 29.42 in996.3 mb 0.00 in0.0 mm 0.00 in/hr0.0 mm/hr 0.00 in0.0 mm
12:25 PM 73.2°F22.9°C 60.8°F16.0°C 65% 11.5 mph SSE18.5 kmh SSE 14.5 mph23.3 kmh 29.42 in996.3 mb 0.00 in0.0 mm 0.00 in/hr0.0 mm/hr 0.00 in0.0 mm
12:20 PM 73.2°F22.9°C 60.8°F16.0°C 65% 10.9 mph S17.5 kmh S 12.1 mph19.5 kmh 29.42 in996.3 mb 0.00 in0.0 mm 0.00 in/hr0.0 mm/hr 0.00 in0.0 mm
12:15 PM 73.9°F23.3°C 60.6°F15.9°C 63% 10.7 mph S17.2 kmh S 10.7 mph17.2 kmh 29.42 in996.3 mb 0.00 in0.0 mm 0.00 in/hr0.0 mm/hr 0.00 in0.0 mm
12:10 PM 75.6°F24.2°C 60.3°F15.7°C 59% 10.7 mph E17.2 kmh E 10.7 mph17.2 kmh 29.42 in996.3 mb 0.00 in0.0 mm 0.00 in/hr0.0 mm/hr 0.00 in0.0 mm
12:05 PM 75.6°F24.2°C 60.3°F15.7°C 59% 10.7 mph E17.2 kmh E 10.7 mph17.2 kmh 29.43 in996.6 mb 0.00 in0.0 mm 0.00 in/hr0.0 mm/hr 0.00 in0.0 mm
12:00 PM 75.6°F24.2°C 60.3°F15.7°C 59% 10.7 mph E17.2 kmh E 10.7 mph17.2 kmh 29.43 in996.6 mb 0.00 in0.0 mm 0.00 in/hr0.0 mm/hr 0.00 in0.0 mm
11:55 AM 77.7°F25.4°C 59.3°F15.2°C 53% 8.9 mph SSE14.3 kmh SSE 13.0 mph20.9 kmh 29.43 in996.6 mb 0.00 in0.0 mm 0.00 in/hr0.0 mm/hr 0.00 in0.0 mm
11:50 AM 77.7°F25.4°C 59.3°F15.2°C 53% 8.9 mph SSE14.3 kmh SSE 13.0 mph20.9 kmh 29.43 in996.6 mb 0.00 in0.0 mm 0.00 in/hr0.0 mm/hr 0.00 in0.0 mm
11:45 AM 77.7°F25.4°C 59.3°F15.2°C 53% 10.4 mph SSE16.7 kmh SSE 15.2 mph24.5 kmh 29.43 in996.6 mb 0.00 in0.0 mm 0.00 in/hr0.0 mm/hr 0.00 in0.0 mm
11:40 AM 77.9°F25.5°C 59.4°F15.2°C 53% 11.6 mph SE18.7 kmh SE 15.2 mph24.5 kmh 29.43 in996.6 mb 0.00 in0.0 mm 0.00 in/hr0.0 mm/hr 0.00 in0.0 mm
11:35 AM 78.4°F25.8°C 59.9°F15.5°C 53% 11.4 mph SE18.3 kmh SE 14.5 mph23.3 kmh 29.43 in996.6 mb 0.00 in0.0 mm 0.00 in/hr0.0 mm/hr 0.00 in0.0 mm
11:30 AM 78.3°F25.7°C 59.8°F15.4°C 53% 11.9 mph SE19.2 kmh SE 15.2 mph24.5 kmh 29.43 in996.6 mb 0.00 in0.0 mm 0.00 in/hr0.0 mm/hr 0.00 in0.0 mm
11:25 AM 78.6°F25.9°C 59.6°F15.3°C 52% 12.3 mph SE19.8 kmh SE 18.3 mph29.5 kmh 29.44 in997.0 mb 0.00 in0.0 mm 0.00 in/hr0.0 mm/hr 0.00 in0.0 mm
11:20 AM 79.3°F26.3°C 59.7°F15.4°C 51% 11.8 mph SE19.0 kmh SE 18.3 mph29.5 kmh 29.45 in997.3 mb 0.00 in0.0 mm 0.00 in/hr0.0 mm/hr 0.00 in0.0 mm
11:15 AM 79.9°F26.6°C 60.2°F15.7°C 51% 10.4 mph SE16.7 kmh SE 13.0 mph20.9 kmh 29.45 in997.3 mb 0.00 in0.0 mm 0.00 in/hr0.0 mm/hr 0.00 in0.0 mm
11:10 AM 79.7°F26.5°C 61.1°F16.2°C 53% 9.7 mph SE15.6 kmh SE 16.8 mph27.0 kmh 29.45 in997.3 mb 0.00 in0.0 mm 0.00 in/hr0.0 mm/hr 0.00 in0.0 mm
11:05 AM 78.8°F26.0°C 61.3°F16.3°C 55% 9.3 mph ESE15.0 kmh ESE 16.8 mph27.0 kmh 29.45 in997.3 mb 0.00 in0.0 mm 0.00 in/hr0.0 mm/hr 0.00 in0.0 mm
11:00 AM 77.9°F25.5°C 61.0°F16.1°C 56% 10.7 mph S17.2 kmh S 16.8 mph27.0 kmh 29.45 in997.3 mb 0.00 in0.0 mm 0.00 in/hr0.0 mm/hr 0.00 in0.0 mm
10:55 AM 77.9°F25.5°C 61.0°F16.1°C 56% 11.2 mph S18.0 kmh S 16.8 mph27.0 kmh 29.45 in997.3 mb 0.00 in0.0 mm 0.00 in/hr0.0 mm/hr 0.00 in0.0 mm
10:50 AM 77.5°F25.3°C 62.1°F16.7°C 59% 11.0 mph SSE17.7 kmh SSE 13.0 mph20.9 kmh 29.46 in997.6 mb 0.00 in0.0 mm 0.00 in/hr0.0 mm/hr 0.00 in0.0 mm
10:45 AM 76.8°F24.9°C 61.9°F16.6°C 60% 11.8 mph SSE19.0 kmh SSE 13.6 mph21.9 kmh 29.46 in997.6 mb 0.00 in0.0 mm 0.00 in/hr0.0 mm/hr 0.00 in0.0 mm
10:40 AM 76.8°F24.9°C 61.9°F16.6°C 60% 11.2 mph SE18.0 kmh SE 13.6 mph21.9 kmh 29.46 in997.6 mb 0.00 in0.0 mm 0.00 in/hr0.0 mm/hr 0.00 in0.0 mm
10:35 AM 76.8°F24.9°C 61.4°F16.3°C 59% 9.9 mph SE15.9 kmh SE 13.0 mph20.9 kmh 29.46 in997.6 mb 0.00 in0.0 mm 0.00 in/hr0.0 mm/hr 0.00 in0.0 mm
10:30 AM 76.8°F24.9°C 62.4°F16.9°C 61% 9.4 mph SE15.1 kmh SE 13.0 mph20.9 kmh 29.46 in997.6 mb 0.00 in0.0 mm 0.00 in/hr0.0 mm/hr 0.00 in0.0 mm
10:25 AM 76.5°F24.7°C 62.5°F16.9°C 62% 7.2 mph SE11.6 kmh SE 13.0 mph20.9 kmh 29.46 in997.6 mb 0.00 in0.0 mm 0.00 in/hr0.0 mm/hr 0.00 in0.0 mm
10:20 AM 74.8°F23.8°C 61.9°F16.6°C 64% 6.1 mph SE9.8 kmh SE 16.8 mph27.0 kmh 29.46 in997.6 mb 0.00 in0.0 mm 0.00 in/hr0.0 mm/hr 0.00 in0.0 mm
10:15 AM 74.8°F23.8°C 61.9°F16.6°C 64% 9.2 mph SE14.8 kmh SE 16.8 mph27.0 kmh 29.46 in997.6 mb 0.00 in0.0 mm 0.00 in/hr0.0 mm/hr 0.00 in0.0 mm
10:10 AM 74.7°F23.7°C 62.6°F17.0°C 66% 9.0 mph ESE14.5 kmh ESE 16.8 mph27.0 kmh 29.46 in997.6 mb 0.00 in0.0 mm 0.00 in/hr0.0 mm/hr 0.00 in0.0 mm
10:05 AM 73.8°F23.2°C 62.6°F17.0°C 68% 7.1 mph E11.4 kmh E 9.8 mph15.8 kmh 29.46 in997.6 mb 0.00 in0.0 mm 0.00 in/hr0.0 mm/hr 0.00 in0.0 mm
10:00 AM 73.8°F23.2°C 62.6°F17.0°C 68% 8.5 mph S13.7 kmh S 10.7 mph17.2 kmh 29.46 in997.6 mb 0.00 in0.0 mm 0.00 in/hr0.0 mm/hr 0.00 in0.0 mm
09:55 AM 73.8°F23.2°C 62.6°F17.0°C 68% 10.6 mph SW17.1 kmh SW 10.7 mph17.2 kmh 29.45 in997.3 mb 0.00 in0.0 mm 0.00 in/hr0.0 mm/hr 0.00 in0.0 mm
09:50 AM 73.6°F23.1°C 62.0°F16.7°C 67% 10.3 mph SW16.6 kmh SW 11.4 mph18.3 kmh 29.46 in997.6 mb 0.00 in0.0 mm 0.00 in/hr0.0 mm/hr 0.00 in0.0 mm
09:45 AM 73.6°F23.1°C 62.0°F16.7°C 67% 9.0 mph SSE14.5 kmh SSE 12.1 mph19.5 kmh 29.46 in997.6 mb 0.00 in0.0 mm 0.00 in/hr0.0 mm/hr 0.00 in0.0 mm
09:40 AM 73.6°F23.1°C 62.0°F16.7°C 67% 9.7 mph SE15.6 kmh SE 12.1 mph19.5 kmh 29.45 in997.3 mb 0.00 in0.0 mm 0.00 in/hr0.0 mm/hr 0.00 in0.0 mm
09:35 AM 73.8°F23.2°C 61.7°F16.5°C 66% 11.0 mph SE17.7 kmh SE 13.6 mph21.9 kmh 29.46 in997.6 mb 0.00 in0.0 mm 0.00 in/hr0.0 mm/hr 0.00 in0.0 mm
09:30 AM 73.4°F23.0°C 61.8°F16.6°C 67% 9.6 mph SE15.4 kmh SE 13.6 mph21.9 kmh 29.46 in997.6 mb 0.00 in0.0 mm 0.00 in/hr0.0 mm/hr 0.00 in0.0 mm
09:25 AM 73.2°F22.9°C 62.1°F16.7°C 68% 8.9 mph SSE14.3 kmh SSE 14.5 mph23.3 kmh 29.47 in998.0 mb 0.00 in0.0 mm 0.00 in/hr0.0 mm/hr 0.00 in0.0 mm
09:20 AM 72.3°F22.4°C 61.6°F16.4°C 69% 9.4 mph SSE15.1 kmh SSE 14.5 mph23.3 kmh 29.46 in997.6 mb 0.00 in0.0 mm 0.00 in/hr0.0 mm/hr 0.00 in0.0 mm
09:15 AM 72.3°F22.4°C 61.6°F16.4°C 69% 8.4 mph SE13.5 kmh SE 13.0 mph20.9 kmh 29.47 in998.0 mb 0.00 in0.0 mm 0.00 in/hr0.0 mm/hr 0.00 in0.0 mm
09:10 AM 72.5°F22.5°C 61.8°F16.6°C 69% 7.6 mph SE12.2 kmh SE 12.1 mph19.5 kmh 29.46 in997.6 mb 0.00 in0.0 mm 0.00 in/hr0.0 mm/hr 0.00 in0.0 mm
09:05 AM 72.9°F22.7°C 62.1°F16.7°C 69% 8.3 mph SE13.4 kmh SE 12.1 mph19.5 kmh 29.46 in997.6 mb 0.00 in0.0 mm 0.00 in/hr0.0 mm/hr 0.00 in0.0 mm
09:00 AM 72.7°F22.6°C 62.0°F16.7°C 69% 8.9 mph SE14.3 kmh SE 13.0 mph20.9 kmh 29.46 in997.6 mb 0.00 in0.0 mm 0.00 in/hr0.0 mm/hr 0.00 in0.0 mm
08:55 AM 72.5°F22.5°C 61.8°F16.6°C 69% 9.3 mph SSE15.0 kmh SSE 13.0 mph20.9 kmh 29.46 in997.6 mb 0.00 in0.0 mm 0.00 in/hr0.0 mm/hr 0.00 in0.0 mm
08:50 AM 72.7°F22.6°C 62.4°F16.9°C 70% 8.2 mph SE13.2 kmh SE 12.1 mph19.5 kmh 29.46 in997.6 mb 0.00 in0.0 mm 0.00 in/hr0.0 mm/hr 0.00 in0.0 mm
08:45 AM 72.1°F22.3°C 62.6°F17.0°C 72% 7.4 mph SE11.9 kmh SE 9.8 mph15.8 kmh 29.46 in997.6 mb 0.00 in0.0 mm 0.00 in/hr0.0 mm/hr 0.00 in0.0 mm
08:40 AM 71.4°F21.9°C 62.0°F16.7°C 72% 7.9 mph SSE12.7 kmh SSE 9.8 mph15.8 kmh 29.46 in997.6 mb 0.00 in0.0 mm 0.00 in/hr0.0 mm/hr 0.00 in0.0 mm
08:35 AM 71.1°F21.7°C 62.0°F16.7°C 73% 7.8 mph SE12.6 kmh SE 9.8 mph15.8 kmh 29.46 in997.6 mb 0.00 in0.0 mm 0.00 in/hr0.0 mm/hr 0.00 in0.0 mm
08:30 AM 70.9°F21.6°C 61.8°F16.6°C 73% 8.7 mph SE14.0 kmh SE 10.7 mph17.2 kmh 29.47 in998.0 mb 0.00 in0.0 mm 0.00 in/hr0.0 mm/hr 0.00 in0.0 mm
08:25 AM 70.9°F21.6°C 61.8°F16.6°C 73% 8.0 mph SE12.9 kmh SE 10.7 mph17.2 kmh 29.46 in997.6 mb 0.00 in0.0 mm 0.00 in/hr0.0 mm/hr 0.00 in0.0 mm
08:20 AM 70.7°F21.5°C 62.0°F16.7°C 74% 7.4 mph SE11.9 kmh SE 11.4 mph18.3 kmh 29.47 in998.0 mb 0.00 in0.0 mm 0.00 in/hr0.0 mm/hr 0.00 in0.0 mm
08:15 AM 70.3°F21.3°C 62.1°F16.7°C 75% 7.9 mph ESE12.7 kmh ESE 11.4 mph18.3 kmh 29.47 in998.0 mb 0.00 in0.0 mm 0.00 in/hr0.0 mm/hr 0.00 in0.0 mm
08:10 AM 70.0°F21.1°C 62.5°F16.9°C 77% 8.9 mph SE14.3 kmh SE 14.5 mph23.3 kmh 29.47 in998.0 mb 0.00 in0.0 mm 0.00 in/hr0.0 mm/hr 0.00 in0.0 mm
08:05 AM 69.1°F20.6°C 61.6°F16.4°C 77% 8.9 mph SE14.3 kmh SE 14.5 mph23.3 kmh 29.47 in998.0 mb 0.00 in0.0 mm 0.00 in/hr0.0 mm/hr 0.00 in0.0 mm
08:00 AM 68.5°F20.3°C 61.4°F16.3°C 78% 7.6 mph E12.2 kmh E 14.5 mph23.3 kmh 29.47 in998.0 mb 0.00 in0.0 mm 0.00 in/hr0.0 mm/hr 0.00 in0.0 mm
07:55 AM 68.4°F20.2°C 60.9°F16.1°C 77% 7.6 mph E12.2 kmh E 9.8 mph15.8 kmh 29.47 in998.0 mb 0.00 in0.0 mm 0.00 in/hr0.0 mm/hr 0.00 in0.0 mm
07:50 AM 68.5°F20.3°C 61.4°F16.3°C 78% 7.4 mph SE11.9 kmh SE 10.7 mph17.2 kmh 29.47 in998.0 mb 0.00 in0.0 mm 0.00 in/hr0.0 mm/hr 0.00 in0.0 mm
07:45 AM 68.5°F20.3°C 61.4°F16.3°C 78% 8.7 mph SE14.0 kmh SE 12.1 mph19.5 kmh 29.47 in998.0 mb 0.00 in0.0 mm 0.00 in/hr0.0 mm/hr 0.00 in0.0 mm
07:40 AM 68.4°F20.2°C 61.3°F16.3°C 78% 9.0 mph SE14.5 kmh SE 12.1 mph19.5 kmh 29.47 in998.0 mb 0.00 in0.0 mm 0.00 in/hr0.0 mm/hr 0.00 in0.0 mm
07:35 AM 68.4°F20.2°C 61.3°F16.3°C 78% 8.2 mph SSE13.2 kmh SSE 10.7 mph17.2 kmh 29.47 in998.0 mb 0.00 in0.0 mm 0.00 in/hr0.0 mm/hr 0.00 in0.0 mm
07:30 AM 68.0°F20.0°C 61.6°F16.4°C 80% 7.6 mph SE12.2 kmh SE 10.7 mph17.2 kmh 29.47 in998.0 mb 0.00 in0.0 mm 0.00 in/hr0.0 mm/hr 0.00 in0.0 mm
07:25 AM 67.6°F19.8°C 61.3°F16.3°C 80% 7.7 mph SE12.4 kmh SE 11.4 mph18.3 kmh 29.47 in998.0 mb 0.00 in0.0 mm 0.00 in/hr0.0 mm/hr 0.00 in0.0 mm
07:20 AM 67.3°F19.6°C 61.3°F16.3°C 81% 7.9 mph SSE12.7 kmh SSE 11.4 mph18.3 kmh 29.46 in997.6 mb 0.00 in0.0 mm 0.00 in/hr0.0 mm/hr 0.00 in0.0 mm
07:15 AM 67.3°F19.6°C 61.6°F16.4°C 82% 7.4 mph SE11.9 kmh SE 9.8 mph15.8 kmh 29.47 in998.0 mb 0.00 in0.0 mm 0.00 in/hr0.0 mm/hr 0.00 in0.0 mm
07:10 AM 66.9°F19.4°C 61.3°F16.3°C 82% 6.0 mph SE9.7 kmh SE 9.2 mph14.8 kmh 29.46 in997.6 mb 0.00 in0.0 mm 0.00 in/hr0.0 mm/hr 0.00 in0.0 mm
07:05 AM 66.9°F19.4°C 61.6°F16.4°C 83% 6.1 mph S9.8 kmh S 9.8 mph15.8 kmh 29.47 in998.0 mb 0.00 in0.0 mm 0.00 in/hr0.0 mm/hr 0.00 in0.0 mm
07:00 AM 66.7°F19.3°C 61.4°F16.3°C 83% 7.6 mph SSE12.2 kmh SSE 9.8 mph15.8 kmh 29.47 in998.0 mb 0.00 in0.0 mm 0.00 in/hr0.0 mm/hr 0.00 in0.0 mm
06:55 AM 66.6°F19.2°C 61.3°F16.3°C 83% 7.9 mph SE12.7 kmh SE 9.8 mph15.8 kmh 29.47 in998.0 mb 0.00 in0.0 mm 0.00 in/hr0.0 mm/hr 0.00 in0.0 mm
06:50 AM 66.4°F19.1°C 61.4°F16.3°C 84% 7.8 mph SE12.6 kmh SE 10.7 mph17.2 kmh 29.47 in998.0 mb 0.00 in0.0 mm 0.00 in/hr0.0 mm/hr 0.00 in0.0 mm
06:45 AM 66.2°F19.0°C 61.6°F16.4°C 85% 7.8 mph SE12.6 kmh SE 10.7 mph17.2 kmh 29.47 in998.0 mb 0.00 in0.0 mm 0.00 in/hr0.0 mm/hr 0.00 in0.0 mm
06:40 AM 66.0°F18.9°C 61.4°F16.3°C 85% 6.8 mph SE10.9 kmh SE 9.8 mph15.8 kmh 29.47 in998.0 mb 0.00 in0.0 mm 0.00 in/hr0.0 mm/hr 0.00 in0.0 mm
06:35 AM 65.8°F18.8°C 61.2°F16.2°C 85% 5.8 mph SE9.3 kmh SE 9.2 mph14.8 kmh 29.47 in998.0 mb 0.00 in0.0 mm 0.00 in/hr0.0 mm/hr 0.00 in0.0 mm
06:30 AM 65.8°F18.8°C 61.2°F16.2°C 85% 5.3 mph SE8.5 kmh SE 9.2 mph14.8 kmh 29.46 in997.6 mb 0.00 in0.0 mm 0.00 in/hr0.0 mm/hr 0.00 in0.0 mm
06:25 AM 65.8°F18.8°C 61.2°F16.2°C 85% 5.6 mph SE9.0 kmh SE 9.2 mph14.8 kmh 29.46 in997.6 mb 0.00 in0.0 mm 0.00 in/hr0.0 mm/hr 0.00 in0.0 mm
06:20 AM 65.8°F18.8°C 61.2°F16.2°C 85% 7.4 mph SSE11.9 kmh SSE 12.1 mph19.5 kmh 29.46 in997.6 mb 0.00 in0.0 mm 0.00 in/hr0.0 mm/hr 0.00 in0.0 mm
06:15 AM 65.8°F18.8°C 61.2°F16.2°C 85% 7.2 mph SSE11.6 kmh SSE 12.1 mph19.5 kmh 29.46 in997.6 mb 0.00 in0.0 mm 0.00 in/hr0.0 mm/hr 0.00 in0.0 mm
06:10 AM 65.8°F18.8°C 61.6°F16.4°C 86% 5.9 mph SSE9.5 kmh SSE 8.3 mph13.4 kmh 29.46 in997.6 mb 0.00 in0.0 mm 0.00 in/hr0.0 mm/hr 0.00 in0.0 mm
06:05 AM 65.8°F18.8°C 61.6°F16.4°C 86% 5.6 mph SSE9.0 kmh SSE 7.6 mph12.2 kmh 29.47 in998.0 mb 0.00 in0.0 mm 0.00 in/hr0.0 mm/hr 0.00 in0.0 mm
06:00 AM 65.7°F18.7°C 61.4°F16.3°C 86% 6.4 mph S10.3 kmh S 9.8 mph15.8 kmh 29.47 in998.0 mb 0.00 in0.0 mm 0.00 in/hr0.0 mm/hr 0.00 in0.0 mm
05:55 AM 65.7°F18.7°C 61.4°F16.3°C 86% 7.3 mph S11.7 kmh S 9.8 mph15.8 kmh 29.47 in998.0 mb 0.00 in0.0 mm 0.00 in/hr0.0 mm/hr 0.00 in0.0 mm
05:50 AM 65.7°F18.7°C 61.7°F16.5°C 87% 6.7 mph SSE10.8 kmh SSE 9.8 mph15.8 kmh 29.47 in998.0 mb 0.00 in0.0 mm 0.00 in/hr0.0 mm/hr 0.00 in0.0 mm
05:45 AM 65.7°F18.7°C 61.7°F16.5°C 87% 6.8 mph SE10.9 kmh SE 9.8 mph15.8 kmh 29.47 in998.0 mb 0.00 in0.0 mm 0.00 in/hr0.0 mm/hr 0.00 in0.0 mm
05:40 AM 65.5°F18.6°C 61.5°F16.4°C 87% 6.5 mph SE10.5 kmh SE 9.8 mph15.8 kmh 29.46 in997.6 mb 0.00 in0.0 mm 0.00 in/hr0.0 mm/hr 0.00 in0.0 mm
05:35 AM 65.5°F18.6°C 61.5°F16.4°C 87% 5.6 mph SSE9.0 kmh SSE 7.6 mph12.2 kmh 29.46 in997.6 mb 0.00 in0.0 mm 0.00 in/hr0.0 mm/hr 0.00 in0.0 mm
05:30 AM 65.3°F18.5°C 61.4°F16.3°C 87% 5.5 mph S8.9 kmh S 6.9 mph11.1 kmh 29.46 in997.6 mb 0.00 in0.0 mm 0.00 in/hr0.0 mm/hr 0.00 in0.0 mm
05:25 AM 65.3°F18.5°C 61.4°F16.3°C 87% 5.7 mph S9.2 kmh S 6.9 mph11.1 kmh 29.46 in997.6 mb 0.00 in0.0 mm 0.00 in/hr0.0 mm/hr 0.00 in0.0 mm
05:20 AM 65.1°F18.4°C 61.2°F16.2°C 87% 6.8 mph SSE10.9 kmh SSE 11.4 mph18.3 kmh 29.46 in997.6 mb 0.00 in0.0 mm 0.00 in/hr0.0 mm/hr 0.00 in0.0 mm
05:15 AM 65.3°F18.5°C 61.4°F16.3°C 87% 7.3 mph SSE11.7 kmh SSE 11.4 mph18.3 kmh 29.46 in997.6 mb 0.00 in0.0 mm 0.00 in/hr0.0 mm/hr 0.00 in0.0 mm
05:10 AM 65.1°F18.4°C 61.2°F16.2°C 87% 7.2 mph S11.6 kmh S 11.4 mph18.3 kmh 29.46 in997.6 mb 0.00 in0.0 mm 0.00 in/hr0.0 mm/hr 0.00 in0.0 mm
05:05 AM 65.1°F18.4°C 61.5°F16.4°C 88% 6.9 mph S11.1 kmh S 9.2 mph14.8 kmh 29.46 in997.6 mb 0.00 in0.0 mm 0.00 in/hr0.0 mm/hr 0.00 in0.0 mm
05:00 AM 64.9°F18.3°C 61.3°F16.3°C 88% 5.8 mph S9.3 kmh S 7.6 mph12.2 kmh 29.45 in997.3 mb 0.00 in0.0 mm 0.00 in/hr0.0 mm/hr 0.00 in0.0 mm
04:55 AM 64.9°F18.3°C 61.6°F16.4°C 89% 5.7 mph SSE9.2 kmh SSE 9.2 mph14.8 kmh 29.46 in997.6 mb 0.00 in0.0 mm 0.00 in/hr0.0 mm/hr 0.00 in0.0 mm
04:50 AM 64.8°F18.2°C 61.8°F16.6°C 90% 5.8 mph S9.3 kmh S 9.2 mph14.8 kmh 29.46 in997.6 mb 0.00 in0.0 mm 0.00 in/hr0.0 mm/hr 0.00 in0.0 mm
04:45 AM 64.6°F18.1°C 61.6°F16.4°C 90% 5.5 mph SSE8.9 kmh SSE 8.3 mph13.4 kmh 29.46 in997.6 mb 0.00 in0.0 mm 0.00 in/hr0.0 mm/hr 0.00 in0.0 mm
04:40 AM 64.6°F18.1°C 61.6°F16.4°C 90% 5.3 mph SE8.5 kmh SE 7.6 mph12.2 kmh 29.47 in998.0 mb 0.00 in0.0 mm 0.00 in/hr0.0 mm/hr 0.00 in0.0 mm
04:35 AM 64.6°F18.1°C 61.6°F16.4°C 90% 5.1 mph SSE8.2 kmh SSE 7.6 mph12.2 kmh 29.47 in998.0 mb 0.00 in0.0 mm 0.00 in/hr0.0 mm/hr 0.00 in0.0 mm
04:30 AM 64.6°F18.1°C 61.6°F16.4°C 90% 4.8 mph SSE7.7 kmh SSE 6.9 mph11.1 kmh 29.47 in998.0 mb 0.00 in0.0 mm 0.00 in/hr0.0 mm/hr 0.00 in0.0 mm
04:25 AM 64.6°F18.1°C 61.6°F16.4°C 90% 4.5 mph SE7.2 kmh SE 6.9 mph11.1 kmh 29.47 in998.0 mb 0.00 in0.0 mm 0.00 in/hr0.0 mm/hr 0.00 in0.0 mm
04:20 AM 64.8°F18.2°C 62.1°F16.7°C 91% 4.8 mph SE7.7 kmh SE 6.9 mph11.1 kmh 29.47 in998.0 mb 0.00 in0.0 mm 0.00 in/hr0.0 mm/hr 0.00 in0.0 mm
04:15 AM 64.8°F18.2°C 62.4°F16.9°C 92% 5.4 mph SE8.7 kmh SE 6.9 mph11.1 kmh 29.48 in998.3 mb 0.00 in0.0 mm 0.00 in/hr0.0 mm/hr 0.00 in0.0 mm
04:10 AM 64.8°F18.2°C 62.4°F16.9°C 92% 5.1 mph SE8.2 kmh SE 8.3 mph13.4 kmh 29.48 in998.3 mb 0.00 in0.0 mm 0.00 in/hr0.0 mm/hr 0.00 in0.0 mm
04:05 AM 64.6°F18.1°C 62.5°F16.9°C 93% 4.1 mph SSE6.6 kmh SSE 8.3 mph13.4 kmh 29.48 in998.3 mb 0.00 in0.0 mm 0.00 in/hr0.0 mm/hr 0.00 in0.0 mm
04:00 AM 64.6°F18.1°C 62.2°F16.8°C 92% 4.4 mph S7.1 kmh S 8.3 mph13.4 kmh 29.48 in998.3 mb 0.00 in0.0 mm 0.00 in/hr0.0 mm/hr 0.00 in0.0 mm
03:55 AM 64.6°F18.1°C 62.2°F16.8°C 92% 4.9 mph S7.9 kmh S 8.3 mph13.4 kmh 29.48 in998.3 mb 0.00 in0.0 mm 0.00 in/hr0.0 mm/hr 0.00 in0.0 mm
03:50 AM 64.6°F18.1°C 62.2°F16.8°C 92% 5.1 mph S8.2 kmh S 8.3 mph13.4 kmh 29.48 in998.3 mb 0.00 in0.0 mm 0.00 in/hr0.0 mm/hr 0.00 in0.0 mm
03:45 AM 64.8°F18.2°C 62.4°F16.9°C 92% 6.0 mph SSW9.7 kmh SSW 8.3 mph13.4 kmh 29.49 in998.6 mb 0.00 in0.0 mm 0.00 in/hr0.0 mm/hr 0.00 in0.0 mm
03:40 AM 64.8°F18.2°C 62.4°F16.9°C 92% 5.9 mph SSW9.5 kmh SSW 8.3 mph13.4 kmh 29.49 in998.6 mb 0.00 in0.0 mm 0.00 in/hr0.0 mm/hr 0.00 in0.0 mm
03:35 AM 64.6°F18.1°C 61.9°F16.6°C 91% 5.0 mph S8.0 kmh S 6.9 mph11.1 kmh 29.49 in998.6 mb 0.00 in0.0 mm 0.00 in/hr0.0 mm/hr 0.00 in0.0 mm
03:30 AM 64.6°F18.1°C 61.9°F16.6°C 91% 4.6 mph SSW7.4 kmh SSW 6.0 mph9.7 kmh 29.49 in998.6 mb 0.00 in0.0 mm 0.00 in/hr0.0 mm/hr 0.00 in0.0 mm
03:25 AM 64.6°F18.1°C 61.6°F16.4°C 90% 4.6 mph SSW7.4 kmh SSW 6.9 mph11.1 kmh 29.49 in998.6 mb 0.00 in0.0 mm 0.00 in/hr0.0 mm/hr 0.00 in0.0 mm
03:20 AM 64.8°F18.2°C 61.5°F16.4°C 89% 4.5 mph S7.2 kmh S 6.9 mph11.1 kmh 29.50 in999.0 mb 0.00 in0.0 mm 0.00 in/hr0.0 mm/hr 0.00 in0.0 mm
03:15 AM 64.6°F18.1°C 61.3°F16.3°C 89% 4.5 mph S7.2 kmh S 6.0 mph9.7 kmh 29.50 in999.0 mb 0.00 in0.0 mm 0.00 in/hr0.0 mm/hr 0.00 in0.0 mm
03:10 AM 64.8°F18.2°C 61.1°F16.2°C 88% 4.7 mph SSE7.6 kmh SSE 6.0 mph9.7 kmh 29.49 in998.6 mb 0.00 in0.0 mm 0.00 in/hr0.0 mm/hr 0.00 in0.0 mm
03:05 AM 64.8°F18.2°C 61.1°F16.2°C 88% 4.9 mph SSE7.9 kmh SSE 6.0 mph9.7 kmh 29.50 in999.0 mb 0.00 in0.0 mm 0.00 in/hr0.0 mm/hr 0.00 in0.0 mm
03:00 AM 64.8°F18.2°C 61.1°F16.2°C 88% 4.6 mph S7.4 kmh S 6.0 mph9.7 kmh 29.50 in999.0 mb 0.00 in0.0 mm 0.00 in/hr0.0 mm/hr 0.00 in0.0 mm
02:55 AM 64.8°F18.2°C 60.8°F16.0°C 87% 4.3 mph S6.9 kmh S 6.9 mph11.1 kmh 29.51 in999.3 mb 0.00 in0.0 mm 0.00 in/hr0.0 mm/hr 0.00 in0.0 mm
02:50 AM 64.9°F18.3°C 61.0°F16.1°C 87% 4.6 mph S7.4 kmh S 6.9 mph11.1 kmh 29.50 in999.0 mb 0.00 in0.0 mm 0.00 in/hr0.0 mm/hr 0.00 in0.0 mm
02:45 AM 64.9°F18.3°C 61.0°F16.1°C 87% 3.7 mph S6.0 kmh S 6.0 mph9.7 kmh 29.51 in999.3 mb 0.00 in0.0 mm 0.00 in/hr0.0 mm/hr 0.00 in0.0 mm
02:40 AM 65.1°F18.4°C 61.2°F16.2°C 87% 3.6 mph S5.8 kmh S 6.9 mph11.1 kmh 29.51 in999.3 mb 0.00 in0.0 mm 0.00 in/hr0.0 mm/hr 0.00 in0.0 mm
02:35 AM 65.3°F18.5°C 61.4°F16.3°C 87% 4.5 mph S7.2 kmh S 6.9 mph11.1 kmh 29.51 in999.3 mb 0.00 in0.0 mm 0.00 in/hr0.0 mm/hr 0.00 in0.0 mm
02:30 AM 65.3°F18.5°C 61.4°F16.3°C 87% 4.7 mph S7.6 kmh S 6.0 mph9.7 kmh 29.51 in999.3 mb 0.00 in0.0 mm 0.00 in/hr0.0 mm/hr 0.00 in0.0 mm
02:25 AM 65.5°F18.6°C 61.5°F16.4°C 87% 4.7 mph S7.6 kmh S 6.0 mph9.7 kmh 29.52 in999.7 mb 0.00 in0.0 mm 0.00 in/hr0.0 mm/hr 0.00 in0.0 mm
02:20 AM 65.5°F18.6°C 61.5°F16.4°C 87% 4.2 mph S6.8 kmh S 6.0 mph9.7 kmh 29.52 in999.7 mb 0.00 in0.0 mm 0.00 in/hr0.0 mm/hr 0.00 in0.0 mm
02:15 AM 65.5°F18.6°C 61.5°F16.4°C 87% 4.3 mph S6.9 kmh S 6.0 mph9.7 kmh 29.52 in999.7 mb 0.00 in0.0 mm 0.00 in/hr0.0 mm/hr 0.00 in0.0 mm
02:10 AM 65.5°F18.6°C 61.9°F16.6°C 88% 4.7 mph SSW7.6 kmh SSW 6.0 mph9.7 kmh 29.52 in999.7 mb 0.00 in0.0 mm 0.00 in/hr0.0 mm/hr 0.00 in0.0 mm
02:05 AM 65.5°F18.6°C 61.9°F16.6°C 88% 4.8 mph S7.7 kmh S 6.9 mph11.1 kmh 29.52 in999.7 mb 0.00 in0.0 mm 0.00 in/hr0.0 mm/hr 0.00 in0.0 mm
02:00 AM 65.5°F18.6°C 61.9°F16.6°C 88% 4.7 mph S7.6 kmh S 8.3 mph13.4 kmh 29.52 in999.7 mb 0.00 in0.0 mm 0.00 in/hr0.0 mm/hr 0.00 in0.0 mm
01:55 AM 65.5°F18.6°C 61.9°F16.6°C 88% 3.9 mph S6.3 kmh S 8.3 mph13.4 kmh 29.52 in999.7 mb 0.00 in0.0 mm 0.00 in/hr0.0 mm/hr 0.00 in0.0 mm
01:50 AM 65.3°F18.5°C 61.7°F16.5°C 88% 4.0 mph S6.4 kmh S 6.9 mph11.1 kmh 29.52 in999.7 mb 0.00 in0.0 mm 0.00 in/hr0.0 mm/hr 0.00 in0.0 mm
01:45 AM 65.3°F18.5°C 61.7°F16.5°C 88% 4.7 mph S7.6 kmh S 6.9 mph11.1 kmh 29.52 in999.7 mb 0.00 in0.0 mm 0.00 in/hr0.0 mm/hr 0.00 in0.0 mm
01:40 AM 65.1°F18.4°C 61.5°F16.4°C 88% 4.0 mph SSE6.4 kmh SSE 6.9 mph11.1 kmh 29.53 in1000.0 mb 0.00 in0.0 mm 0.00 in/hr0.0 mm/hr 0.00 in0.0 mm
01:35 AM 65.1°F18.4°C 61.5°F16.4°C 88% 4.0 mph SSE6.4 kmh SSE 6.0 mph9.7 kmh 29.53 in1000.0 mb 0.00 in0.0 mm 0.00 in/hr0.0 mm/hr 0.00 in0.0 mm
01:30 AM 65.3°F18.5°C 62.0°F16.7°C 89% 4.4 mph S7.1 kmh S 6.0 mph9.7 kmh 29.53 in1000.0 mb 0.00 in0.0 mm 0.00 in/hr0.0 mm/hr 0.00 in0.0 mm
01:25 AM 65.1°F18.4°C 61.8°F16.6°C 89% 3.9 mph S6.3 kmh S 6.9 mph11.1 kmh 29.53 in1000.0 mb 0.00 in0.0 mm 0.00 in/hr0.0 mm/hr 0.00 in0.0 mm
01:20 AM 65.1°F18.4°C 61.5°F16.4°C 88% 3.9 mph S6.3 kmh S 6.9 mph11.1 kmh 29.53 in1000.0 mb 0.00 in0.0 mm 0.00 in/hr0.0 mm/hr 0.00 in0.0 mm
01:15 AM 64.9°F18.3°C 61.3°F16.3°C 88% 3.7 mph SSE6.0 kmh SSE 6.0 mph9.7 kmh 29.53 in1000.0 mb 0.00 in0.0 mm 0.00 in/hr0.0 mm/hr 0.00 in0.0 mm
01:10 AM 64.9°F18.3°C 61.3°F16.3°C 88% 3.8 mph S6.1 kmh S 4.5 mph7.2 kmh 29.53 in1000.0 mb 0.00 in0.0 mm 0.00 in/hr0.0 mm/hr 0.00 in0.0 mm
01:05 AM 64.8°F18.2°C 60.8°F16.0°C 87% 3.7 mph S6.0 kmh S 4.5 mph7.2 kmh 29.53 in1000.0 mb 0.00 in0.0 mm 0.00 in/hr0.0 mm/hr 0.00 in0.0 mm
01:00 AM 64.8°F18.2°C 60.8°F16.0°C 87% 2.9 mph S4.7 kmh S 4.5 mph7.2 kmh 29.54 in1000.3 mb 0.00 in0.0 mm 0.00 in/hr0.0 mm/hr 0.00 in0.0 mm
12:55 AM 64.9°F18.3°C 61.0°F16.1°C 87% 3.0 mph S4.8 kmh S 5.4 mph8.7 kmh 29.55 in1000.7 mb 0.00 in0.0 mm 0.00 in/hr0.0 mm/hr 0.00 in0.0 mm
12:50 AM 65.1°F18.4°C 61.2°F16.2°C 87% 3.5 mph S5.6 kmh S 5.4 mph8.7 kmh 29.55 in1000.7 mb 0.00 in0.0 mm 0.00 in/hr0.0 mm/hr 0.00 in0.0 mm
12:45 AM 65.3°F18.5°C 61.0°F16.1°C 86% 3.9 mph S6.3 kmh S 6.0 mph9.7 kmh 29.55 in1000.7 mb 0.00 in0.0 mm 0.00 in/hr0.0 mm/hr 0.00 in0.0 mm
12:40 AM 65.3°F18.5°C 61.0°F16.1°C 86% 4.3 mph SSE6.9 kmh SSE 6.0 mph9.7 kmh 29.55 in1000.7 mb 0.00 in0.0 mm 0.00 in/hr0.0 mm/hr 0.00 in0.0 mm
12:35 AM 65.5°F18.6°C 61.2°F16.2°C 86% 3.9 mph S6.3 kmh S 6.0 mph9.7 kmh 29.55 in1000.7 mb 0.00 in0.0 mm 0.00 in/hr0.0 mm/hr 0.00 in0.0 mm
12:30 AM 65.5°F18.6°C 61.2°F16.2°C 86% 4.1 mph S6.6 kmh S 5.4 mph8.7 kmh 29.55 in1000.7 mb 0.00 in0.0 mm 0.00 in/hr0.0 mm/hr 0.00 in0.0 mm
12:25 AM 65.5°F18.6°C 61.2°F16.2°C 86% 4.2 mph S6.8 kmh S 5.4 mph8.7 kmh 29.55 in1000.7 mb 0.00 in0.0 mm 0.00 in/hr0.0 mm/hr 0.00 in0.0 mm
12:20 AM 65.5°F18.6°C 60.9°F16.1°C 85% 3.7 mph S6.0 kmh S 5.4 mph8.7 kmh 29.55 in1000.7 mb 0.00 in0.0 mm 0.00 in/hr0.0 mm/hr 0.00 in0.0 mm
12:15 AM 65.5°F18.6°C 60.9°F16.1°C 85% 3.6 mph S5.8 kmh S 5.4 mph8.7 kmh 29.55 in1000.7 mb 0.00 in0.0 mm 0.00 in/hr0.0 mm/hr 0.00 in0.0 mm
12:10 AM 65.7°F18.7°C 61.1°F16.2°C 85% 3.9 mph SE6.3 kmh SE 5.4 mph8.7 kmh 29.55 in1000.7 mb 0.00 in0.0 mm 0.00 in/hr0.0 mm/hr 0.00 in0.0 mm
12:05 AM 65.7°F18.7°C 61.1°F16.2°C 85% 3.7 mph SE6.0 kmh SE 5.4 mph8.7 kmh 29.56 in1001.0 mb 0.00 in0.0 mm 0.00 in/hr0.0 mm/hr 0.00 in0.0 mm
12:00 AM 65.7°F18.7°C 61.1°F16.2°C 85% 3.2 mph SSE5.1 kmh SSE 5.4 mph8.7 kmh 29.56 in1001.0 mb 0.00 in0.0 mm 0.00 in/hr0.0 mm/hr 0.00 in0.0 mm